createdAt,value
2018-04-08T00:00:45.611Z,9.00
2018-04-08T00:03:13.071Z,11.97
2018-04-08T00:05:40.545Z,8.90
2018-04-08T00:08:08.767Z,19.40
2018-04-08T00:10:36.248Z,8.83
2018-04-08T00:13:03.812Z,10.13
2018-04-08T00:15:31.374Z,11.37
2018-04-08T00:17:58.938Z,8.87
2018-04-08T00:20:26.398Z,9.03
2018-04-08T00:22:53.907Z,11.13
2018-04-08T00:25:21.400Z,7.83
2018-04-08T00:27:50.385Z,10.23
2018-04-08T00:30:17.953Z,9.33
2018-04-08T00:32:45.415Z,10.10
2018-04-08T00:35:13.029Z,10.63
2018-04-08T00:37:40.485Z,9.60
2018-04-08T00:40:08.044Z,7.63
2018-04-08T00:42:35.552Z,11.13
2018-04-08T00:45:03.030Z,9.13
2018-04-08T00:47:31.252Z,13.17
2018-04-08T00:49:58.716Z,8.03
2018-04-08T00:52:26.183Z,10.20
2018-04-08T00:54:53.648Z,10.10
2018-04-08T00:57:21.210Z,9.90
2018-04-08T00:59:49.469Z,11.20
2018-04-08T01:02:17.034Z,9.77
2018-04-08T01:04:44.501Z,10.40
2018-04-08T01:07:12.058Z,10.50
2018-04-08T01:09:39.529Z,10.73
2018-04-08T01:12:07.791Z,10.63
2018-04-08T01:14:35.252Z,11.80
2018-04-08T01:17:02.722Z,10.40
2018-04-08T01:19:30.988Z,10.43
2018-04-08T01:21:59.222Z,11.47
2018-04-08T01:24:26.703Z,11.57
2018-04-08T01:26:54.943Z,13.60
2018-04-08T01:29:22.415Z,19.57
2018-04-08T01:31:49.905Z,11.30
2018-04-08T01:34:17.452Z,15.60
2018-04-08T01:36:44.917Z,11.43
2018-04-08T01:39:12.426Z,9.20
2018-04-08T01:41:39.929Z,9.87
2018-04-08T01:44:07.392Z,10.97
2018-04-08T01:46:34.940Z,11.00
2018-04-08T01:49:02.401Z,9.93
2018-04-08T01:51:29.940Z,10.53
2018-04-08T01:53:57.415Z,12.03
2018-04-08T01:56:24.969Z,10.07
2018-04-08T01:58:52.532Z,9.87
2018-04-08T02:01:19.996Z,10.93
2018-04-08T02:03:47.504Z,10.20
2018-04-08T02:06:14.972Z,10.90
2018-04-08T02:08:42.465Z,11.60
2018-04-08T02:11:09.930Z,16.40
2018-04-08T02:13:38.160Z,9.80
2018-04-08T02:16:05.616Z,9.27
2018-04-08T02:18:33.086Z,9.50
2018-04-08T02:21:00.553Z,10.23
2018-04-08T02:23:28.129Z,10.10
2018-04-08T02:25:55.682Z,11.27
2018-04-08T02:28:23.194Z,12.03
2018-04-08T02:30:50.662Z,10.60
2018-04-08T02:33:18.144Z,10.27
2018-04-08T02:35:45.609Z,9.07
2018-04-08T02:38:13.088Z,10.40
2018-04-08T02:40:41.346Z,12.40
2018-04-08T02:43:08.823Z,12.43
2018-04-08T02:45:37.046Z,9.53
2018-04-08T02:48:04.542Z,8.10
2018-04-08T02:50:32.009Z,10.37
2018-04-08T02:53:00.256Z,9.90
2018-04-08T02:55:28.494Z,12.20
2018-04-08T02:57:55.961Z,9.60
2018-04-08T03:00:23.462Z,11.17
2018-04-08T03:02:50.966Z,8.40
2018-04-08T03:05:18.473Z,8.47
2018-04-08T03:07:45.949Z,10.77
2018-04-08T03:10:13.413Z,9.25
2018-04-08T03:12:40.898Z,9.63
2018-04-08T03:15:08.392Z,10.97
2018-04-08T03:17:35.957Z,11.20
2018-04-08T03:20:03.434Z,10.30
2018-04-08T03:22:31.669Z,11.43
2018-04-08T03:24:59.250Z,10.13
2018-04-08T03:27:26.861Z,12.17
2018-04-08T03:29:54.356Z,11.30
2018-04-08T03:32:21.833Z,12.00
2018-04-08T03:34:50.088Z,8.83
2018-04-08T03:37:17.653Z,14.37
2018-04-08T03:39:45.213Z,10.27
2018-04-08T03:42:12.680Z,11.27
2018-04-08T03:44:40.934Z,10.53
2018-04-08T03:47:08.405Z,11.25
2018-04-08T03:49:35.880Z,13.20
2018-04-08T03:52:04.126Z,11.90
2018-04-08T03:54:31.597Z,9.63
2018-04-08T03:56:59.074Z,12.00
2018-04-08T03:59:27.318Z,12.63
2018-04-08T04:01:54.789Z,13.13
2018-04-08T04:04:23.035Z,11.93
2018-04-08T04:06:50.497Z,10.23
2018-04-08T04:09:17.977Z,12.35
2018-04-08T04:11:46.215Z,12.40
2018-04-08T04:14:13.693Z,10.60
2018-04-08T04:16:41.165Z,12.23
2018-04-08T04:22:25.116Z,13.85
2018-04-08T04:25:04.604Z,12.02
2018-04-08T04:27:32.078Z,10.40
2018-04-08T04:29:59.562Z,15.98
2018-04-08T04:32:27.027Z,12.00
2018-04-08T04:34:54.501Z,12.77
2018-04-08T04:37:22.724Z,17.42
2018-04-08T04:39:50.210Z,13.32
2018-04-08T04:42:17.682Z,16.48
2018-04-08T04:44:45.928Z,14.15
2018-04-08T04:47:13.407Z,17.15
2018-04-08T04:49:40.968Z,14.38
2018-04-08T04:52:08.445Z,13.15
2018-04-08T04:54:36.676Z,12.48
2018-04-08T04:57:04.266Z,14.35
2018-04-08T04:59:31.725Z,11.43
2018-04-08T05:01:59.964Z,17.60
2018-04-08T05:04:27.428Z,14.00
2018-04-08T05:06:54.918Z,11.10
2018-04-08T05:09:23.163Z,16.12
2018-04-08T05:11:50.641Z,18.37
2018-04-08T05:14:18.113Z,12.68
2018-04-08T05:16:46.340Z,14.70
2018-04-08T05:19:13.804Z,14.87
2018-04-08T05:21:41.285Z,14.90
2018-04-08T05:24:09.556Z,14.77
2018-04-08T05:26:37.029Z,19.42
2018-04-08T05:29:05.291Z,16.30
2018-04-08T05:31:32.849Z,14.07
2018-04-08T05:34:00.326Z,15.18
2018-04-08T05:36:28.640Z,20.40
2018-04-08T05:38:56.577Z,14.30
2018-04-08T05:41:24.167Z,15.18
2018-04-08T05:43:51.791Z,18.15
2018-04-08T05:46:20.269Z,13.23
2018-04-08T05:48:48.081Z,11.98
2018-04-08T05:51:15.778Z,14.87
2018-04-08T05:53:43.369Z,14.25
2018-04-08T05:56:10.850Z,16.48
2018-04-08T05:58:38.314Z,10.77
2018-04-08T06:01:05.785Z,17.58
2018-04-08T06:03:33.265Z,12.25
2018-04-08T06:06:00.737Z,12.60
2018-04-08T06:08:29.238Z,15.43
2018-04-08T06:10:56.810Z,16.87
2018-04-08T06:13:24.285Z,15.57
2018-04-08T06:15:51.762Z,12.63
2018-04-08T06:18:19.245Z,15.98
2018-04-08T06:20:47.545Z,17.80
2018-04-08T06:23:15.025Z,14.20
2018-04-08T06:25:42.505Z,13.10
2018-04-08T06:28:10.123Z,14.43
2018-04-08T06:30:37.757Z,15.30
2018-04-08T06:33:05.989Z,13.33
2018-04-08T06:35:33.453Z,15.67
2018-04-08T06:38:00.912Z,13.73
2018-04-08T06:40:28.377Z,13.43
2018-04-08T06:42:56.616Z,13.07
2018-04-08T06:45:24.106Z,15.17
2018-04-08T06:47:51.581Z,12.80
2018-04-08T06:50:19.054Z,12.07
2018-04-08T06:52:47.313Z,11.97
2018-04-08T06:55:14.794Z,13.20
2018-04-08T06:57:42.274Z,15.50
2018-04-08T07:00:09.741Z,16.53
2018-04-08T07:02:37.235Z,16.57
2018-04-08T07:05:04.696Z,12.93
2018-04-08T07:07:32.970Z,13.40
2018-04-08T07:10:00.427Z,15.43
2018-04-08T07:12:27.925Z,10.80
2018-04-08T07:14:55.381Z,14.90
2018-04-08T07:17:22.900Z,10.53
2018-04-08T07:19:50.508Z,14.40
2018-04-08T07:22:17.972Z,11.40
2018-04-08T07:24:45.535Z,10.17
2018-04-08T07:27:13.750Z,13.90
2018-04-08T07:29:41.221Z,13.57
2018-04-08T07:32:09.451Z,12.63
2018-04-08T07:34:36.913Z,9.90
2018-04-08T07:37:04.398Z,15.87
2018-04-08T07:39:31.877Z,13.00
2018-04-08T07:41:59.346Z,9.60
2018-04-08T07:44:26.834Z,12.83
2018-04-08T07:46:54.292Z,12.30
2018-04-08T07:49:21.766Z,11.13
2018-04-08T07:51:49.224Z,15.10
2018-04-08T07:54:16.695Z,11.10
2018-04-08T07:56:44.171Z,11.13
2018-04-08T07:59:11.734Z,12.93
2018-04-08T08:01:39.263Z,12.93
2018-04-08T08:04:06.813Z,12.77
2018-04-08T08:06:34.278Z,23.93
2018-04-08T08:09:01.850Z,12.07
2018-04-08T08:11:30.144Z,14.27
2018-04-08T08:13:57.670Z,11.00
2018-04-08T08:16:25.135Z,12.43
2018-04-08T08:18:52.601Z,12.00
2018-04-08T08:21:20.842Z,14.43
2018-04-08T08:23:48.319Z,12.53
2018-04-08T08:26:15.793Z,11.73
2018-04-08T08:28:44.062Z,12.57
2018-04-08T08:31:12.296Z,11.13
2018-04-08T08:33:39.778Z,12.17
2018-04-08T08:36:08.048Z,13.70
2018-04-08T08:38:35.520Z,13.87
2018-04-08T08:41:03.857Z,10.90
2018-04-08T08:43:31.454Z,13.33
2018-04-08T08:45:58.926Z,12.10
2018-04-08T08:48:27.701Z,11.30
2018-04-08T08:50:55.546Z,15.43
2018-04-08T08:53:23.019Z,10.43
2018-04-08T08:55:50.498Z,11.10
2018-04-08T08:58:18.748Z,12.03
2018-04-08T09:00:46.281Z,10.23
2018-04-08T09:03:13.866Z,12.00
2018-04-08T09:05:41.420Z,13.10
2018-04-08T09:08:08.876Z,13.30
2018-04-08T09:10:37.862Z,16.23
2018-04-08T09:13:05.387Z,12.60
2018-04-08T09:15:32.854Z,13.90
2018-04-08T09:18:00.327Z,11.87
2018-04-08T09:23:35.862Z,11.73
2018-04-08T09:26:05.774Z,8.63
2018-04-08T09:28:33.272Z,10.33
2018-04-08T09:31:00.738Z,9.70
2018-04-08T09:33:28.201Z,7.33
2018-04-08T09:35:55.752Z,8.90
2018-04-08T09:38:23.311Z,9.53
2018-04-08T09:40:50.781Z,9.03
2018-04-08T09:43:18.242Z,11.23
2018-04-08T09:45:46.558Z,8.70
2018-04-08T09:48:14.026Z,9.10
2018-04-08T09:50:41.498Z,8.80
2018-04-08T09:53:08.965Z,10.70
2018-04-08T09:55:36.434Z,10.50
2018-04-08T09:58:19.554Z,17.23
2018-04-08T10:03:53.570Z,8.43
2018-04-08T10:06:21.030Z,9.93
2018-04-08T10:08:48.587Z,11.23
2018-04-08T10:11:16.055Z,6.97
2018-04-08T10:13:43.515Z,6.00
2018-04-08T10:16:10.977Z,8.03
2018-04-08T10:18:38.446Z,7.93
2018-04-08T10:21:06.677Z,9.87
2018-04-08T10:23:34.143Z,6.80
2018-04-08T10:26:01.617Z,12.03
2018-04-08T10:28:29.069Z,9.90
2018-04-08T10:30:57.318Z,7.93
2018-04-08T10:33:24.781Z,7.10
2018-04-08T10:35:52.251Z,8.13
2018-04-08T10:38:19.710Z,9.27
2018-04-08T10:40:47.206Z,7.43
2018-04-08T10:43:14.670Z,7.80
2018-04-08T10:45:42.176Z,6.93
2018-04-08T10:48:11.145Z,7.07
2018-04-08T10:50:38.617Z,8.23
2018-04-08T10:53:06.078Z,7.20
2018-04-08T10:55:33.533Z,7.10
2018-04-08T10:58:00.992Z,7.40
2018-04-08T11:00:28.465Z,7.07
2018-04-08T11:02:55.915Z,7.10
2018-04-08T11:05:23.480Z,7.17
2018-04-08T11:07:51.726Z,9.30
2018-04-08T11:10:19.206Z,6.40
2018-04-08T11:12:46.666Z,8.97
2018-04-08T11:15:14.138Z,6.67
2018-04-08T11:17:42.395Z,6.63
2018-04-08T11:20:11.366Z,12.90
2018-04-08T11:22:38.839Z,5.83
2018-04-08T11:25:06.288Z,6.13
2018-04-08T11:27:33.866Z,7.07
2018-04-08T11:30:01.421Z,7.40
2018-04-08T11:32:28.889Z,7.47
2018-04-08T11:34:56.424Z,6.17
2018-04-08T11:37:23.896Z,9.33
2018-04-08T11:39:51.347Z,7.33
2018-04-08T11:42:18.903Z,7.70
2018-04-08T11:44:46.468Z,8.03
2018-04-08T11:47:13.985Z,8.93
2018-04-08T11:49:42.173Z,6.97
2018-04-08T11:52:09.633Z,6.57
2018-04-08T11:54:37.105Z,9.97
2018-04-08T11:57:04.569Z,8.80
2018-04-08T11:59:32.030Z,6.87
2018-04-08T12:01:59.549Z,6.10
2018-04-08T12:04:27.732Z,7.73
2018-04-08T12:06:55.193Z,7.37
2018-04-08T12:09:22.661Z,7.00
2018-04-08T12:11:50.129Z,8.50
2018-04-08T12:14:17.683Z,5.77
2018-04-08T12:16:45.949Z,6.67
2018-04-08T12:19:13.471Z,6.40
2018-04-08T12:21:40.932Z,6.70
2018-04-08T12:24:08.402Z,6.90
2018-04-08T12:26:35.873Z,6.67
2018-04-08T12:29:03.338Z,12.40
2018-04-08T12:31:30.804Z,6.77
2018-04-08T12:33:58.260Z,6.00
2018-04-08T12:36:25.740Z,6.33
2018-04-08T12:38:53.980Z,8.33
2018-04-08T12:41:21.445Z,8.20
2018-04-08T12:43:49.000Z,6.87
2018-04-08T12:46:16.518Z,8.43
2018-04-08T12:48:43.977Z,6.10
2018-04-08T12:51:11.442Z,6.57
2018-04-08T12:53:38.914Z,7.50
2018-04-08T12:56:06.374Z,7.17
2018-04-08T12:58:33.902Z,10.80
2018-04-08T13:01:01.368Z,6.67
2018-04-08T13:03:28.833Z,6.40
2018-04-08T13:05:56.372Z,6.20
2018-04-08T13:08:23.825Z,8.70
2018-04-08T13:10:51.298Z,8.80
2018-04-08T13:13:18.764Z,8.93
2018-04-08T13:15:46.224Z,7.03
2018-04-08T13:18:13.690Z,7.60
2018-04-08T13:20:41.153Z,8.63
2018-04-08T13:23:08.622Z,7.80
2018-04-08T13:25:36.126Z,10.30
2018-04-08T13:28:03.634Z,8.83
2018-04-08T13:30:31.191Z,8.63
2018-04-08T13:32:58.748Z,8.60
2018-04-08T13:35:26.213Z,9.00
2018-04-08T13:37:54.477Z,12.50
2018-04-08T13:40:21.943Z,7.03
2018-04-08T13:42:49.517Z,8.40
2018-04-08T13:45:17.749Z,7.80
2018-04-08T13:47:45.214Z,8.70
2018-04-08T13:50:12.669Z,8.77
2018-04-08T13:52:40.148Z,9.50
2018-04-08T13:55:07.614Z,8.87
2018-04-08T13:57:35.873Z,10.67
2018-04-08T14:00:03.346Z,15.40
2018-04-08T14:02:31.659Z,8.10
2018-04-08T14:04:59.162Z,10.40
2018-04-08T14:07:26.629Z,11.13
2018-04-08T14:09:54.092Z,9.17
2018-04-08T14:12:22.324Z,6.50
2018-04-08T14:14:49.794Z,12.37
2018-04-08T14:17:17.333Z,13.17
2018-04-08T14:19:44.822Z,11.00
2018-04-08T14:22:12.290Z,15.90
2018-04-08T14:24:39.815Z,10.17
2018-04-08T14:27:07.266Z,12.33
2018-04-08T14:29:34.733Z,14.20
2018-04-08T14:32:02.190Z,9.40
2018-04-08T14:34:30.148Z,18.20
2018-04-08T14:36:57.618Z,12.13
2018-04-08T14:39:25.237Z,10.47
2018-04-08T14:41:53.465Z,12.10
2018-04-08T14:44:20.942Z,11.33
2018-04-08T14:46:49.161Z,11.53
2018-04-08T14:49:16.623Z,11.53
2018-04-08T14:51:44.084Z,10.90
2018-04-08T14:54:11.540Z,9.80
2018-04-08T14:56:39.015Z,12.13
2018-04-08T14:59:06.476Z,15.80
2018-04-08T15:01:33.940Z,16.20
2018-04-08T15:04:01.497Z,15.63
2018-04-08T15:06:28.962Z,14.27
2018-04-08T15:08:56.429Z,11.27
2018-04-08T15:11:24.697Z,15.10
2018-04-08T15:13:52.157Z,17.27
2018-04-08T15:16:20.393Z,11.90
2018-04-08T15:18:47.857Z,11.67
2018-04-08T15:21:15.329Z,13.00
2018-04-08T15:23:42.792Z,11.33
2018-04-08T15:26:10.263Z,14.43
2018-04-08T15:28:38.490Z,11.80
2018-04-08T15:31:05.970Z,12.20
2018-04-08T15:33:33.441Z,16.67
2018-04-08T15:36:00.918Z,12.27
2018-04-08T15:38:29.152Z,18.53
2018-04-08T15:40:56.629Z,10.47
2018-04-08T15:43:24.093Z,15.33
2018-04-08T15:45:52.408Z,13.70
2018-04-08T15:48:19.864Z,13.57
2018-04-08T15:50:47.349Z,14.43
2018-04-08T15:53:14.817Z,14.03
2018-04-08T15:55:42.298Z,16.20
2018-04-08T15:58:10.585Z,14.93
2018-04-08T16:00:38.835Z,16.70
2018-04-08T16:03:06.284Z,19.20
2018-04-08T16:05:33.792Z,15.03
2018-04-08T16:08:01.267Z,14.50
2018-04-08T16:10:28.768Z,17.83
2018-04-08T16:12:56.249Z,16.40
2018-04-08T16:15:24.541Z,16.40
2018-04-08T16:17:51.961Z,17.70
2018-04-08T16:20:19.768Z,15.13
2018-04-08T16:22:47.273Z,17.77
2018-04-08T16:25:14.736Z,15.90
2018-04-08T16:27:42.219Z,17.87
2018-04-08T16:30:10.449Z,15.93
2018-04-08T16:32:37.908Z,14.10
2018-04-08T16:35:05.383Z,16.27
2018-04-08T16:37:32.844Z,15.70
2018-04-08T16:40:01.079Z,19.33
2018-04-08T16:42:28.554Z,16.43
2018-04-08T16:44:56.017Z,22.27
2018-04-08T16:47:23.484Z,19.93
2018-04-08T16:49:51.037Z,14.17
2018-04-08T16:52:18.515Z,15.40
2018-04-08T16:54:46.736Z,17.17
2018-04-08T16:57:14.211Z,15.13
2018-04-08T16:59:41.693Z,16.03
2018-04-08T17:02:09.932Z,18.30
2018-04-08T17:04:37.392Z,15.30
2018-04-08T17:07:05.235Z,17.50
2018-04-08T17:09:32.702Z,19.03
2018-04-08T17:12:00.198Z,15.37
2018-04-08T17:14:27.758Z,14.90
2018-04-08T17:16:55.302Z,15.07
2018-04-08T17:19:22.772Z,17.50
2018-04-08T17:21:50.246Z,16.73
2018-04-08T17:24:18.482Z,18.07
2018-04-08T17:26:45.954Z,15.73
2018-04-08T17:29:13.430Z,20.30
2018-04-08T17:31:41.661Z,18.67
2018-04-08T17:34:09.157Z,16.33
2018-04-08T17:36:36.704Z,20.80
2018-04-08T17:39:04.170Z,16.47
2018-04-08T17:41:31.668Z,15.90
2018-04-08T17:43:59.473Z,16.73
2018-04-08T17:46:27.045Z,17.80
2018-04-08T17:48:56.023Z,17.13
2018-04-08T17:51:23.482Z,16.03
2018-04-08T17:53:52.469Z,22.90
2018-04-08T17:56:19.932Z,16.00
2018-04-08T17:58:47.400Z,18.07
2018-04-08T18:01:14.856Z,21.07
2018-04-08T18:03:42.326Z,17.93
2018-04-08T18:06:10.577Z,18.73
2018-04-08T18:08:38.818Z,20.33
2018-04-08T18:11:06.282Z,20.80
2018-04-08T18:13:33.775Z,20.00
2018-04-08T18:16:02.022Z,19.70
2018-04-08T18:18:29.490Z,20.30
2018-04-08T18:20:56.951Z,22.27
2018-04-08T18:23:25.245Z,20.57
2018-04-08T18:25:52.785Z,22.33
2018-04-08T18:28:20.254Z,19.40
2018-04-08T18:30:49.848Z,19.67
2018-04-08T18:33:18.137Z,21.80
2018-04-08T18:35:45.603Z,20.00
2018-04-08T18:38:13.078Z,18.70
2018-04-08T18:40:41.309Z,19.53
2018-04-08T18:43:08.781Z,20.30
2018-04-08T18:45:36.244Z,28.80
2018-04-08T18:48:03.719Z,19.20
2018-04-08T18:50:32.069Z,17.83
2018-04-08T18:52:59.554Z,21.00
2018-04-08T18:55:27.789Z,26.20
2018-04-08T18:57:55.360Z,16.33
2018-04-08T19:00:22.833Z,19.30
2018-04-08T19:02:51.068Z,20.17
2018-04-08T19:05:18.534Z,20.33
2018-04-08T19:07:45.996Z,20.97
2018-04-08T19:10:13.569Z,18.67
2018-04-08T19:12:41.038Z,21.33
2018-04-08T19:15:14.888Z,21.13
2018-04-08T19:17:48.213Z,21.20
2018-04-08T19:20:15.738Z,21.00
2018-04-08T19:22:43.363Z,18.77
2018-04-08T19:25:11.745Z,26.97
2018-04-08T19:27:40.107Z,24.00
2018-04-08T19:30:13.537Z,21.40
2018-04-08T19:32:41.095Z,22.17
2018-04-08T19:35:08.609Z,22.73
2018-04-08T19:37:36.072Z,24.67
2018-04-08T19:40:03.545Z,22.90
2018-04-08T19:42:32.417Z,23.83
2018-04-08T19:44:59.981Z,22.47
2018-04-08T19:47:27.466Z,18.40
2018-04-08T19:49:54.935Z,22.40
2018-04-08T19:52:22.410Z,28.23
2018-04-08T19:54:49.886Z,32.37
2018-04-08T19:57:17.362Z,30.53
2018-04-08T19:59:46.450Z,27.10
2018-04-08T20:02:14.673Z,24.93
2018-04-08T20:04:42.154Z,22.97
2018-04-08T20:07:09.629Z,25.20
2018-04-08T20:09:37.101Z,25.63
2018-04-08T20:12:06.077Z,22.00
2018-04-08T20:14:33.557Z,23.90
2018-04-08T20:17:01.796Z,26.10
2018-04-08T20:19:29.277Z,25.67
2018-04-08T20:21:58.249Z,22.23
2018-04-08T20:24:25.730Z,24.27
2018-04-08T20:26:53.965Z,23.17
2018-04-08T20:29:21.457Z,27.37
2018-04-08T20:31:49.019Z,25.67
2018-04-08T20:34:16.497Z,21.70
2018-04-08T20:36:44.849Z,25.83
2018-04-08T20:39:12.325Z,20.00
2018-04-08T20:41:40.559Z,23.07
2018-04-08T20:44:08.037Z,25.77
2018-04-08T20:46:35.502Z,26.83
2018-04-08T20:49:03.871Z,23.53
2018-04-08T20:51:31.433Z,24.60
2018-04-08T20:53:58.903Z,20.60
2018-04-08T20:56:28.167Z,29.90
2018-04-08T20:58:55.650Z,21.33
2018-04-08T21:01:23.885Z,21.97
2018-04-08T21:03:51.361Z,24.97
2018-04-08T21:06:18.840Z,28.43
2018-04-08T21:08:47.093Z,22.13
2018-04-08T21:11:14.577Z,21.00
2018-04-08T21:13:42.048Z,24.70
2018-04-08T21:16:10.281Z,21.37
2018-04-08T21:18:37.847Z,20.73
2018-04-08T21:21:05.337Z,25.33
2018-04-08T21:23:33.582Z,22.77
2018-04-08T21:26:01.149Z,23.03
2018-04-08T21:28:28.865Z,22.50
2018-04-08T21:30:56.465Z,24.33
2018-04-08T21:33:24.705Z,27.70
2018-04-08T21:35:52.183Z,19.93
2018-04-08T21:38:19.662Z,25.57
2018-04-08T21:40:47.904Z,22.37
2018-04-08T21:43:15.376Z,21.37
2018-04-08T21:45:42.953Z,23.73
2018-04-08T21:48:10.427Z,26.83
2018-04-08T21:50:38.681Z,23.33
2018-04-08T21:53:06.171Z,24.20
2018-04-08T21:55:33.645Z,25.13
2018-04-08T21:58:01.117Z,26.27
2018-04-08T22:00:28.597Z,27.57
2018-04-08T22:02:56.082Z,25.50
2018-04-08T22:05:24.343Z,25.17
2018-04-08T22:07:51.824Z,31.30
2018-04-08T22:10:20.177Z,29.40
2018-04-08T22:12:48.453Z,24.40
2018-04-08T22:15:15.942Z,26.73
2018-04-08T22:17:43.420Z,23.20
2018-04-08T22:20:10.909Z,23.43
2018-04-08T22:22:38.477Z,24.97
2018-04-08T22:25:05.954Z,27.60
2018-04-08T22:27:34.188Z,30.67
2018-04-08T22:30:01.725Z,28.93
2018-04-08T22:32:29.233Z,23.90
2018-04-08T22:34:56.716Z,25.33
2018-04-08T22:37:24.951Z,32.17
2018-04-08T22:39:52.532Z,26.67
2018-04-08T22:42:20.770Z,22.67
2018-04-08T22:44:48.248Z,30.53
2018-04-08T22:47:15.763Z,25.07
2018-04-08T22:49:43.231Z,22.43
2018-04-08T22:52:10.713Z,25.00
2018-04-08T22:54:38.193Z,20.10
2018-04-08T22:57:06.437Z,22.20
2018-04-08T22:59:33.927Z,24.97
2018-04-08T23:02:02.203Z,16.70
2018-04-08T23:04:29.756Z,22.30
2018-04-08T23:06:57.244Z,28.90
2018-04-08T23:09:24.713Z,24.30
2018-04-08T23:11:52.218Z,19.07
2018-04-08T23:14:19.797Z,21.90
2018-04-08T23:16:48.061Z,23.83
2018-04-08T23:19:15.613Z,17.83
2018-04-08T23:21:43.076Z,22.73
2018-04-08T23:24:10.566Z,16.50
2018-04-08T23:26:38.025Z,20.00
2018-04-08T23:29:05.500Z,23.33
2018-04-08T23:31:32.974Z,21.80
2018-04-08T23:34:00.559Z,19.87
2018-04-08T23:36:28.038Z,20.07
2018-04-08T23:38:56.284Z,22.73
2018-04-08T23:41:23.771Z,21.07
2018-04-08T23:43:52.012Z,19.60
2018-04-08T23:46:19.475Z,17.97
2018-04-08T23:48:46.962Z,20.30
2018-04-08T23:51:15.207Z,21.13
2018-04-08T23:53:42.687Z,20.60
2018-04-08T23:56:10.931Z,23.23
2018-04-08T23:58:38.406Z,20.60
